createdAt,value
2018-03-19T00:00:02.460Z,65.10
2018-03-19T00:02:30.086Z,65.40
2018-03-19T00:04:58.438Z,66.20
2018-03-19T00:07:26.070Z,65.80
2018-03-19T00:09:53.670Z,65.70
2018-03-19T00:12:21.279Z,65.30
2018-03-19T00:14:48.901Z,66.10
2018-03-19T00:17:16.532Z,65.30
2018-03-19T00:19:46.082Z,65.40
2018-03-19T00:22:14.463Z,65.60
2018-03-19T00:24:42.843Z,65.20
2018-03-19T00:27:11.217Z,65.00
2018-03-19T00:29:38.790Z,65.10
2018-03-19T00:32:07.200Z,65.50
2018-03-19T00:34:34.843Z,65.50
2018-03-19T00:37:03.230Z,65.60
2018-03-19T00:39:30.856Z,65.70
2018-03-19T00:41:58.508Z,65.00
2018-03-19T00:44:26.151Z,65.10
2018-03-19T00:46:53.738Z,65.50
2018-03-19T00:49:21.353Z,65.80
2018-03-19T00:51:48.956Z,65.20
2018-03-19T00:54:16.573Z,65.70
2018-03-19T00:56:44.167Z,65.40
2018-03-19T00:59:11.791Z,65.90
2018-03-19T01:01:42.431Z,65.60
2018-03-19T01:04:10.872Z,65.40
2018-03-19T01:06:39.221Z,64.90
2018-03-19T01:09:06.862Z,64.80
2018-03-19T01:11:34.483Z,65.20
2018-03-19T01:14:02.133Z,65.30
2018-03-19T01:16:29.762Z,65.30
2018-03-19T01:18:57.345Z,65.20
2018-03-19T01:21:24.950Z,65.20
2018-03-19T01:23:52.596Z,65.70
2018-03-19T01:26:20.986Z,64.80
2018-03-19T01:28:48.557Z,64.90
2018-03-19T01:31:16.178Z,65.10
2018-03-19T01:33:43.767Z,65.30
2018-03-19T01:36:11.412Z,66.00
2018-03-19T01:38:39.780Z,64.70
2018-03-19T01:41:07.392Z,64.70
2018-03-19T01:43:35.015Z,66.20
2018-03-19T01:46:03.368Z,65.70
2018-03-19T01:48:31.074Z,65.70
2018-03-19T01:50:58.657Z,65.40
2018-03-19T01:53:26.250Z,64.70
2018-03-19T01:55:53.858Z,65.40
2018-03-19T01:58:21.522Z,65.50
2018-03-19T02:00:49.875Z,64.60
2018-03-19T02:03:17.454Z,64.60
2018-03-19T02:05:45.089Z,64.80
2018-03-19T02:08:12.679Z,64.90
2018-03-19T02:10:41.057Z,65.10
2018-03-19T02:13:12.457Z,65.10
2018-03-19T02:15:42.243Z,65.10
2018-03-19T02:18:12.150Z,64.90
2018-03-19T02:20:42.116Z,64.60
2018-03-19T02:23:12.015Z,64.50
2018-03-19T02:25:41.668Z,64.50
2018-03-19T02:28:12.556Z,64.90
2018-03-19T02:30:42.008Z,64.80
2018-03-19T02:33:10.387Z,64.30
2018-03-19T02:35:38.728Z,65.00
2018-03-19T02:38:06.360Z,64.90
2018-03-19T02:40:33.955Z,65.10
2018-03-19T02:43:01.580Z,64.70
2018-03-19T02:45:29.196Z,64.80
2018-03-19T02:47:56.776Z,64.70
2018-03-19T02:50:25.146Z,64.40
2018-03-19T02:52:53.497Z,64.40
2018-03-19T02:55:21.117Z,64.40
2018-03-19T02:57:49.469Z,64.80
2018-03-19T03:00:17.856Z,64.80
2018-03-19T03:02:45.439Z,64.80
2018-03-19T03:05:13.015Z,64.10
2018-03-19T03:07:42.009Z,64.50
2018-03-19T03:10:10.546Z,64.30
2018-03-19T03:12:38.884Z,64.30
2018-03-19T03:15:06.507Z,64.20
2018-03-19T03:17:34.087Z,65.40
2018-03-19T03:20:01.704Z,64.80
2018-03-19T03:22:29.358Z,65.30
2018-03-19T03:24:57.720Z,65.10
2018-03-19T03:27:25.316Z,65.10
2018-03-19T03:29:52.938Z,64.80
2018-03-19T03:32:20.568Z,64.30
2018-03-19T03:34:48.144Z,63.90
2018-03-19T03:37:15.765Z,64.30
2018-03-19T03:39:43.384Z,65.50
2018-03-19T03:42:11.024Z,65.40
2018-03-19T03:44:38.609Z,65.40
2018-03-19T03:47:06.236Z,65.20
2018-03-19T03:49:33.859Z,65.50
2018-03-19T03:52:02.266Z,65.40
2018-03-19T03:54:30.630Z,65.10
2018-03-19T03:56:59.054Z,64.70
2018-03-19T03:59:26.628Z,64.60
2018-03-19T04:01:54.280Z,65.30
2018-03-19T04:04:21.854Z,64.80
2018-03-19T04:06:49.447Z,65.40
2018-03-19T04:09:17.825Z,66.70
2018-03-19T04:11:45.436Z,66.60
2018-03-19T04:14:13.061Z,66.10
2018-03-19T04:16:40.664Z,65.50
2018-03-19T04:19:08.276Z,65.60
2018-03-19T04:21:36.687Z,65.30
2018-03-19T04:24:04.299Z,65.30
2018-03-19T04:26:31.873Z,65.30
2018-03-19T04:29:00.321Z,66.00
2018-03-19T04:31:27.929Z,66.00
2018-03-19T04:33:56.305Z,66.30
2018-03-19T04:36:24.650Z,67.10
2018-03-19T04:38:52.277Z,66.50
2018-03-19T04:41:19.907Z,66.10
2018-03-19T04:43:48.278Z,65.40
2018-03-19T04:46:16.661Z,65.40
2018-03-19T04:48:45.047Z,65.70
2018-03-19T04:51:12.634Z,65.50
2018-03-19T04:53:40.296Z,66.00
2018-03-19T04:56:07.931Z,66.10
2018-03-19T04:58:35.565Z,66.60
2018-03-19T05:01:03.934Z,66.10
2018-03-19T05:03:31.567Z,66.10
2018-03-19T05:05:59.186Z,65.90
2018-03-19T05:08:27.567Z,66.20
2018-03-19T05:10:55.911Z,66.10
2018-03-19T05:13:23.550Z,66.10
2018-03-19T05:15:51.211Z,65.90
2018-03-19T05:18:18.816Z,65.80
2018-03-19T05:20:46.486Z,65.70
2018-03-19T05:23:14.089Z,66.50
2018-03-19T05:25:41.752Z,66.00
2018-03-19T05:28:10.225Z,65.20
2018-03-19T05:30:37.866Z,65.20
2018-03-19T05:33:06.261Z,65.40
2018-03-19T05:35:33.829Z,65.40
2018-03-19T05:38:02.252Z,66.10
2018-03-19T05:40:29.847Z,65.60
2018-03-19T05:42:58.287Z,66.20
2018-03-19T05:45:25.930Z,66.10
2018-03-19T05:47:53.552Z,66.20
2018-03-19T05:50:21.925Z,66.50
2018-03-19T05:52:50.350Z,66.50
2018-03-19T05:55:17.988Z,67.20
2018-03-19T05:57:45.570Z,66.50
2018-03-19T06:00:13.205Z,67.20
2018-03-19T06:02:41.622Z,67.20
2018-03-19T06:05:09.214Z,67.20
2018-03-19T06:07:36.846Z,67.90
2018-03-19T06:10:04.427Z,68.40
2018-03-19T06:12:32.834Z,68.40
2018-03-19T06:15:01.184Z,68.30
2018-03-19T06:17:28.853Z,68.30
2018-03-19T06:19:56.463Z,68.40
2018-03-19T06:22:24.076Z,67.90
2018-03-19T06:24:51.958Z,68.50
2018-03-19T06:27:19.680Z,68.40
2018-03-19T06:29:47.292Z,68.60
2018-03-19T06:32:15.717Z,69.30
2018-03-19T06:34:43.323Z,69.20
2018-03-19T06:37:10.901Z,69.00
2018-03-19T06:39:38.543Z,69.10
2018-03-19T06:42:06.142Z,68.80
2018-03-19T06:44:34.128Z,69.20
2018-03-19T06:47:01.808Z,68.80
2018-03-19T06:49:29.392Z,68.70
2018-03-19T06:51:57.023Z,68.80
2018-03-19T06:54:24.642Z,69.60
2018-03-19T06:56:52.272Z,68.80
2018-03-19T06:59:19.879Z,69.70
2018-03-19T07:01:47.497Z,69.20
2018-03-19T07:04:15.122Z,68.50
2018-03-19T07:06:42.727Z,68.60
2018-03-19T07:09:10.386Z,68.10
2018-03-19T07:11:38.016Z,68.00
2018-03-19T07:14:05.653Z,68.00
2018-03-19T07:16:33.247Z,67.70
2018-03-19T07:19:01.832Z,67.50
2018-03-19T07:21:29.775Z,67.30
2018-03-19T07:23:57.382Z,66.80
2018-03-19T07:26:25.806Z,66.30
2018-03-19T07:28:53.479Z,66.20
2018-03-19T07:31:21.152Z,66.10
2018-03-19T07:33:48.768Z,66.20
2018-03-19T07:36:17.133Z,65.70
2018-03-19T07:38:44.862Z,65.60
2018-03-19T07:41:13.213Z,65.80
2018-03-19T07:43:40.891Z,65.80
2018-03-19T07:46:09.267Z,65.50
2018-03-19T07:48:36.914Z,65.40
2018-03-19T07:51:04.683Z,64.50
2018-03-19T07:53:32.312Z,65.10
2018-03-19T07:55:59.933Z,64.00
2018-03-19T07:58:27.539Z,63.70
2018-03-19T08:00:55.923Z,62.60
2018-03-19T08:03:23.577Z,62.70
2018-03-19T08:05:51.138Z,62.80
2018-03-19T08:08:18.760Z,62.60
2018-03-19T08:10:46.375Z,62.60
2018-03-19T08:13:14.019Z,62.60
2018-03-19T08:15:41.727Z,62.50
2018-03-19T08:18:09.359Z,61.90
2018-03-19T08:20:37.794Z,61.10
2018-03-19T08:23:05.415Z,61.10
2018-03-19T08:25:33.105Z,60.80
2018-03-19T08:28:00.763Z,61.40
2018-03-19T08:30:28.396Z,61.10
2018-03-19T08:32:55.971Z,60.70
2018-03-19T08:35:23.579Z,60.00
2018-03-19T08:37:51.191Z,60.20
2018-03-19T08:40:18.859Z,59.60
2018-03-19T08:42:46.429Z,59.40
2018-03-19T08:45:14.134Z,60.20
2018-03-19T08:47:41.822Z,59.50
2018-03-19T08:50:10.208Z,60.00
2018-03-19T08:52:38.588Z,59.90
2018-03-19T08:55:06.967Z,60.30
2018-03-19T08:57:35.358Z,59.70
2018-03-19T09:00:03.093Z,59.70
2018-03-19T09:02:30.773Z,59.70
2018-03-19T09:04:59.136Z,61.00
2018-03-19T09:07:26.876Z,61.00
2018-03-19T09:09:54.478Z,61.50
2018-03-19T09:12:22.960Z,61.60
2018-03-19T09:14:51.704Z,62.10
2018-03-19T09:17:19.391Z,62.10
2018-03-19T09:19:47.067Z,63.20
2018-03-19T09:22:14.634Z,61.40
2018-03-19T09:24:42.976Z,59.60
2018-03-19T09:27:10.617Z,59.60
2018-03-19T09:29:38.287Z,59.10
2018-03-19T09:32:05.889Z,58.90
2018-03-19T09:34:35.893Z,59.40
2018-03-19T09:37:05.348Z,59.40
2018-03-19T09:39:35.403Z,59.70
2018-03-19T09:42:04.802Z,58.50
2018-03-19T09:44:33.957Z,58.40
2018-03-19T09:47:02.955Z,58.30
2018-03-19T09:49:39.751Z,58.90
2018-03-19T09:52:15.858Z,59.60
2018-03-19T09:54:45.138Z,59.50
2018-03-19T09:57:14.645Z,59.00
2018-03-19T09:59:44.977Z,59.40
2018-03-19T10:02:13.992Z,58.30
2018-03-19T10:04:43.733Z,58.90
2018-03-19T10:07:12.562Z,59.20
2018-03-19T10:09:42.751Z,59.90
2018-03-19T10:12:11.120Z,58.50
2018-03-19T10:14:39.043Z,58.60
2018-03-19T10:17:06.628Z,58.90
2018-03-19T10:19:35.056Z,59.00
2018-03-19T10:22:04.603Z,58.80
2018-03-19T10:24:33.125Z,58.40
2018-03-19T10:27:00.791Z,58.40
2018-03-19T10:29:28.498Z,58.20
2018-03-19T10:31:56.095Z,58.20
2018-03-19T10:34:23.701Z,58.30
2018-03-19T10:36:51.434Z,58.30
2018-03-19T10:39:19.179Z,57.70
2018-03-19T10:41:46.868Z,56.90
2018-03-19T10:44:14.645Z,57.60
2018-03-19T10:46:42.342Z,57.90
2018-03-19T10:49:10.003Z,57.40
2018-03-19T10:51:37.642Z,57.20
2018-03-19T10:54:05.277Z,56.80
2018-03-19T10:56:32.953Z,57.20
2018-03-19T10:59:00.636Z,58.00
2018-03-19T11:01:33.986Z,58.20
2018-03-19T11:04:01.942Z,57.30
2018-03-19T11:06:35.451Z,58.00
2018-03-19T11:09:09.678Z,58.40
2018-03-19T11:11:37.679Z,58.40
2018-03-19T11:14:05.343Z,59.20
2018-03-19T11:16:33.019Z,58.80
2018-03-19T11:19:00.646Z,58.10
2018-03-19T11:21:28.274Z,57.50
2018-03-19T11:23:56.160Z,58.40
2018-03-19T11:26:23.814Z,58.00
2018-03-19T11:28:52.230Z,57.00
2018-03-19T11:31:19.906Z,57.00
2018-03-19T11:33:47.522Z,57.30
2018-03-19T11:36:15.177Z,57.30
2018-03-19T11:38:43.569Z,57.70
2018-03-19T11:41:11.959Z,57.40
2018-03-19T11:43:40.426Z,57.10
2018-03-19T11:46:08.799Z,56.50
2018-03-19T11:48:37.307Z,56.60
2018-03-19T11:51:04.972Z,56.00
2018-03-19T11:53:32.556Z,55.40
2018-03-19T11:56:00.294Z,55.40
2018-03-19T11:58:27.925Z,56.20
2018-03-19T12:00:56.423Z,54.90
2018-03-19T12:03:24.040Z,54.90
2018-03-19T12:05:51.687Z,55.20
2018-03-19T12:08:20.109Z,56.50
2018-03-19T12:10:47.877Z,56.50
2018-03-19T12:13:17.699Z,55.00
2018-03-19T12:15:45.386Z,55.00
2018-03-19T12:18:13.322Z,54.80
2018-03-19T12:20:41.763Z,55.40
2018-03-19T12:23:09.413Z,56.00
2018-03-19T12:25:37.062Z,55.60
2018-03-19T12:28:04.671Z,55.20
2018-03-19T12:30:32.248Z,54.40
2018-03-19T12:33:00.665Z,54.00
2018-03-19T12:35:28.250Z,54.00
2018-03-19T12:37:58.329Z,55.30
2018-03-19T12:40:27.583Z,55.40
2018-03-19T12:42:55.202Z,54.70
2018-03-19T12:45:22.921Z,55.10
2018-03-19T12:47:50.574Z,54.60
2018-03-19T12:50:19.208Z,55.10
2018-03-19T12:52:46.818Z,55.10
2018-03-19T12:55:14.467Z,54.30
2018-03-19T12:57:42.162Z,55.10
2018-03-19T13:00:09.874Z,54.40
2018-03-19T13:02:37.501Z,54.70
2018-03-19T13:05:05.931Z,54.60
2018-03-19T13:07:33.674Z,54.50
2018-03-19T13:10:01.348Z,54.50
2018-03-19T13:12:29.743Z,55.20
2018-03-19T13:14:57.380Z,55.20
2018-03-19T13:17:25.044Z,55.00
2018-03-19T13:19:52.700Z,55.10
2018-03-19T13:22:20.344Z,54.70
2018-03-19T13:24:48.713Z,54.10
2018-03-19T13:27:17.176Z,54.00
2018-03-19T13:29:44.848Z,53.90
2018-03-19T13:32:12.535Z,54.00
2018-03-19T13:34:40.889Z,53.50
2018-03-19T13:37:08.577Z,53.50
2018-03-19T13:39:36.180Z,54.40
2018-03-19T13:42:03.834Z,53.40
2018-03-19T13:44:31.708Z,53.20
2018-03-19T13:46:59.386Z,53.10
2018-03-19T13:49:27.826Z,53.90
2018-03-19T13:51:55.506Z,54.10
2018-03-19T13:54:23.227Z,53.50
2018-03-19T13:56:51.828Z,54.50
2018-03-19T13:59:19.490Z,54.50
2018-03-19T14:01:47.931Z,55.40
2018-03-19T14:04:15.529Z,55.40
2018-03-19T14:06:43.909Z,55.00
2018-03-19T14:09:21.155Z,54.70
2018-03-19T14:11:48.815Z,54.60
2018-03-19T14:14:16.574Z,54.50
2018-03-19T14:16:44.223Z,52.70
2018-03-19T14:19:11.894Z,53.70
2018-03-19T14:21:40.172Z,53.50
2018-03-19T14:24:07.815Z,53.20
2018-03-19T14:26:35.450Z,52.40
2018-03-19T14:29:03.877Z,52.80
2018-03-19T14:31:31.514Z,52.70
2018-03-19T14:33:59.338Z,52.90
2018-03-19T14:36:27.486Z,52.50
2018-03-19T14:38:56.211Z,52.30
2018-03-19T14:41:23.935Z,52.60
2018-03-19T14:43:51.616Z,52.70
2018-03-19T14:46:20.091Z,51.80
2018-03-19T14:48:47.919Z,51.80
2018-03-19T14:51:15.855Z,52.00
2018-03-19T14:53:43.506Z,50.70
2018-03-19T14:56:11.254Z,49.80
2018-03-19T14:58:38.905Z,51.10
2018-03-19T15:01:06.561Z,51.40
2018-03-19T15:03:34.248Z,52.60
2018-03-19T15:06:01.935Z,51.40
2018-03-19T15:08:30.543Z,50.20
2018-03-19T15:10:58.240Z,50.20
2018-03-19T15:13:25.826Z,50.00
2018-03-19T15:15:53.443Z,49.70
2018-03-19T15:18:21.238Z,49.90
2018-03-19T15:20:48.910Z,49.90
2018-03-19T15:23:16.537Z,50.00
2018-03-19T15:25:44.935Z,49.60
2018-03-19T15:28:12.606Z,49.60
2018-03-19T15:30:40.178Z,49.40
2018-03-19T15:33:07.835Z,48.70
2018-03-19T15:35:36.298Z,47.60
2018-03-19T15:38:04.022Z,49.00
2018-03-19T15:40:31.750Z,47.90
2018-03-19T15:42:59.484Z,48.10
2018-03-19T15:45:27.196Z,49.20
2018-03-19T15:47:54.882Z,49.30
2018-03-19T15:50:22.559Z,48.80
2018-03-19T15:52:50.314Z,49.30
2018-03-19T15:55:18.068Z,49.80
2018-03-19T15:57:46.606Z,49.60
2018-03-19T16:00:14.318Z,49.50
2018-03-19T16:02:41.926Z,49.30
2018-03-19T16:05:09.591Z,49.00
2018-03-19T16:07:38.001Z,49.00
2018-03-19T16:10:06.393Z,48.90
2018-03-19T16:12:34.800Z,49.90
2018-03-19T16:15:02.519Z,49.90
2018-03-19T16:17:30.922Z,48.90
2018-03-19T16:19:58.684Z,48.90
2018-03-19T16:22:26.362Z,49.20
2018-03-19T16:24:55.504Z,48.70
2018-03-19T16:27:27.406Z,49.00
2018-03-19T16:29:55.850Z,50.50
2018-03-19T16:32:24.814Z,50.50
2018-03-19T16:34:52.882Z,49.40
2018-03-19T16:37:20.478Z,49.00
2018-03-19T16:39:48.938Z,50.70
2018-03-19T16:42:16.583Z,50.60
2018-03-19T16:44:44.201Z,50.50
2018-03-19T16:47:11.774Z,50.20
2018-03-19T16:49:40.113Z,49.50
2018-03-19T16:52:07.755Z,49.50
2018-03-19T16:54:35.452Z,48.90
2018-03-19T16:57:03.077Z,49.80
2018-03-19T16:59:30.742Z,49.80
2018-03-19T17:01:58.314Z,48.90
2018-03-19T17:04:25.899Z,49.60
2018-03-19T17:06:53.510Z,49.80
2018-03-19T17:09:21.113Z,49.70
2018-03-19T17:11:48.762Z,50.30
2018-03-19T17:14:16.383Z,50.40
2018-03-19T17:16:44.724Z,50.00
2018-03-19T17:19:12.375Z,50.00
2018-03-19T17:21:40.059Z,50.00
2018-03-19T17:24:07.720Z,49.60
2018-03-19T17:26:35.395Z,49.90
2018-03-19T17:29:03.850Z,49.90
2018-03-19T17:31:31.486Z,49.90
2018-03-19T17:33:59.159Z,50.20
2018-03-19T17:36:26.758Z,50.20
2018-03-19T17:38:54.368Z,49.90
2018-03-19T17:41:21.990Z,50.00
2018-03-19T17:43:49.850Z,49.10
2018-03-19T17:46:17.609Z,49.90
2018-03-19T17:48:45.182Z,50.90
2018-03-19T17:51:12.822Z,51.20
2018-03-19T17:53:40.464Z,49.70
2018-03-19T17:56:08.148Z,50.30
2018-03-19T17:58:35.747Z,51.70
2018-03-19T18:01:03.429Z,51.00
2018-03-19T18:03:31.026Z,51.10
2018-03-19T18:05:58.626Z,51.40
2018-03-19T18:08:26.258Z,51.00
2018-03-19T18:10:54.622Z,51.20
2018-03-19T18:13:22.307Z,51.20
2018-03-19T18:15:49.931Z,51.40
2018-03-19T18:18:17.509Z,51.80
2018-03-19T18:20:45.111Z,51.60
2018-03-19T18:23:13.486Z,51.60
2018-03-19T18:25:41.845Z,52.50
2018-03-19T18:28:09.481Z,52.40
2018-03-19T18:30:37.069Z,52.10
2018-03-19T18:33:04.689Z,52.30
2018-03-19T18:35:32.275Z,52.00
2018-03-19T18:38:00.734Z,52.70
2018-03-19T18:40:28.367Z,52.60
2018-03-19T18:42:55.974Z,52.40
2018-03-19T18:45:23.546Z,52.30
2018-03-19T18:47:51.217Z,52.30
2018-03-19T18:50:18.818Z,52.50
2018-03-19T18:52:46.432Z,52.30
2018-03-19T18:55:14.061Z,52.40
2018-03-19T18:57:41.638Z,52.20
2018-03-19T19:00:09.258Z,52.90
2018-03-19T19:02:36.850Z,52.00
2018-03-19T19:05:04.506Z,51.10
2018-03-19T19:07:32.189Z,51.30
2018-03-19T19:09:59.831Z,52.70
2018-03-19T19:12:27.420Z,52.50
2018-03-19T19:14:55.080Z,52.90
2018-03-19T19:17:22.717Z,53.80
2018-03-19T19:19:50.338Z,53.40
2018-03-19T19:22:18.701Z,52.50
2018-03-19T19:24:46.306Z,52.50
2018-03-19T19:27:13.951Z,52.70
2018-03-19T19:29:42.339Z,53.30
2018-03-19T19:32:09.922Z,53.30
2018-03-19T19:34:37.563Z,53.50
2018-03-19T19:37:05.230Z,53.00
2018-03-19T19:39:32.846Z,53.40
2018-03-19T19:42:00.434Z,53.30
2018-03-19T19:44:28.849Z,53.10
2018-03-19T19:46:56.443Z,53.10
2018-03-19T19:49:24.079Z,52.60
2018-03-19T19:51:51.665Z,52.80
2018-03-19T19:54:19.296Z,53.60
2018-03-19T19:56:46.866Z,54.40
2018-03-19T19:59:14.678Z,55.10
2018-03-19T20:01:42.247Z,55.30
2018-03-19T20:04:09.812Z,55.50
2018-03-19T20:06:38.267Z,56.30
2018-03-19T20:09:05.962Z,57.00
2018-03-19T20:11:33.595Z,57.00
2018-03-19T20:14:01.173Z,56.50
2018-03-19T20:16:28.830Z,56.20
2018-03-19T20:18:57.265Z,56.10
2018-03-19T20:21:24.894Z,56.10
2018-03-19T20:23:52.505Z,56.20
2018-03-19T20:26:20.166Z,56.40
2018-03-19T20:28:47.774Z,56.50
2018-03-19T20:31:15.398Z,56.00
2018-03-19T20:33:43.064Z,56.30
2018-03-19T20:36:10.675Z,56.60
2018-03-19T20:38:38.477Z,56.70
2018-03-19T20:41:06.096Z,56.50
2018-03-19T20:43:33.719Z,55.70
2018-03-19T20:46:01.348Z,55.00
2018-03-19T20:48:29.020Z,55.30
2018-03-19T20:50:56.809Z,55.30
2018-03-19T20:53:24.451Z,55.70
2018-03-19T20:55:52.035Z,55.30
2018-03-19T20:58:19.668Z,54.10
2018-03-19T21:00:47.306Z,54.40
2018-03-19T21:03:18.840Z,54.60
2018-03-19T21:05:46.454Z,55.50
2018-03-19T21:08:14.216Z,56.10
2018-03-19T21:10:42.935Z,56.30
2018-03-19T21:13:10.578Z,56.70
2018-03-19T21:15:38.161Z,57.20
2018-03-19T21:18:06.661Z,57.80
2018-03-19T21:20:34.290Z,57.10
2018-03-19T21:23:01.950Z,57.40
2018-03-19T21:25:29.549Z,57.90
2018-03-19T21:27:57.123Z,57.60
2018-03-19T21:30:24.743Z,57.90
2018-03-19T21:32:53.120Z,58.40
2018-03-19T21:35:20.760Z,58.40
2018-03-19T21:37:48.388Z,58.20
2018-03-19T21:40:16.123Z,58.60
2018-03-19T21:42:44.480Z,59.00
2018-03-19T21:45:12.083Z,59.10
2018-03-19T21:47:39.790Z,59.50
2018-03-19T21:50:07.507Z,59.50
2018-03-19T21:52:35.088Z,60.00
2018-03-19T21:55:02.760Z,59.90
2018-03-19T21:57:30.375Z,59.90
2018-03-19T21:59:57.966Z,60.40
2018-03-19T22:02:25.612Z,59.80
2018-03-19T22:04:53.190Z,59.90
2018-03-19T22:07:20.832Z,59.80
2018-03-19T22:09:48.420Z,60.10
2018-03-19T22:12:16.068Z,59.60
2018-03-19T22:14:43.776Z,59.70
2018-03-19T22:17:11.402Z,60.00
2018-03-19T22:19:39.038Z,59.80
2018-03-19T22:22:06.870Z,59.80
2018-03-19T22:24:34.479Z,59.70
2018-03-19T22:27:02.128Z,59.80
2018-03-19T22:29:29.793Z,60.10
2018-03-19T22:31:58.192Z,59.80
2018-03-19T22:34:25.825Z,59.80
2018-03-19T22:36:53.483Z,59.90
2018-03-19T22:39:21.884Z,60.00
2018-03-19T22:41:49.527Z,60.00
2018-03-19T22:44:17.932Z,59.90
2018-03-19T22:46:45.514Z,59.90
2018-03-19T22:49:13.119Z,60.10
2018-03-19T22:51:40.732Z,60.00
2018-03-19T22:54:08.410Z,60.30
2018-03-19T22:56:36.002Z,60.60
2018-03-19T22:59:03.670Z,60.40
2018-03-19T23:01:32.030Z,60.70
2018-03-19T23:03:59.669Z,60.60
2018-03-19T23:06:27.252Z,60.70
2018-03-19T23:08:54.971Z,60.60
2018-03-19T23:11:22.641Z,61.00
2018-03-19T23:13:50.979Z,61.20
2018-03-19T23:16:18.594Z,61.20
2018-03-19T23:18:46.307Z,61.50
2018-03-19T23:21:14.730Z,61.60
2018-03-19T23:23:42.310Z,61.60
2018-03-19T23:26:09.890Z,61.50
2018-03-19T23:28:37.520Z,61.50
2018-03-19T23:31:05.107Z,61.30
2018-03-19T23:33:32.722Z,61.50
2018-03-19T23:36:00.315Z,61.40
2018-03-19T23:38:27.981Z,61.70
2018-03-19T23:40:55.601Z,61.90
2018-03-19T23:43:23.299Z,62.50
2018-03-19T23:45:50.906Z,62.80
2018-03-19T23:48:19.259Z,62.60
2018-03-19T23:50:46.941Z,62.60
2018-03-19T23:53:14.539Z,62.70
2018-03-19T23:55:42.122Z,62.40
2018-03-19T23:58:09.777Z,62.50
